sensor_id;sensor_type;location;lat;lon;timestamp;temperature;humidity
6439;DHT22;3252;52.540;13.290;2023-08-17T00:00:11;21.30;99.90
6439;DHT22;3252;52.540;13.290;2023-08-17T00:02:18;21.30;99.90
6439;DHT22;3252;52.540;13.290;2023-08-17T00:04:26;21.30;99.90
6439;DHT22;3252;52.540;13.290;2023-08-17T00:06:30;21.30;99.90
6439;DHT22;3252;52.540;13.290;2023-08-17T00:08:34;21.20;99.90
6439;DHT22;3252;52.540;13.290;2023-08-17T00:10:40;21.20;99.90
6439;DHT22;3252;52.540;13.290;2023-08-17T00:12:57;21.10;99.90
6439;DHT22;3252;52.540;13.290;2023-08-17T00:15:52;21.10;99.90
6439;DHT22;3252;52.540;13.290;2023-08-17T00:17:58;21.10;99.90
6439;DHT22;3252;52.540;13.290;2023-08-17T00:20:07;21.10;99.90
6439;DHT22;3252;52.540;13.290;2023-08-17T00:22:14;21.10;99.90
6439;DHT22;3252;52.540;13.290;2023-08-17T00:24:38;21.10;99.90
6439;DHT22;3252;52.540;13.290;2023-08-17T00:26:48;21.10;99.90
6439;DHT22;3252;52.540;13.290;2023-08-17T00:28:51;21.10;99.90
6439;DHT22;3252;52.540;13.290;2023-08-17T00:30:59;21.10;99.90
6439;DHT22;3252;52.540;13.290;2023-08-17T00:33:01;21.00;99.90
6439;DHT22;3252;52.540;13.290;2023-08-17T00:35:07;21.00;99.90
6439;DHT22;3252;52.540;13.290;2023-08-17T00:37:21;21.00;99.90
6439;DHT22;3252;52.540;13.290;2023-08-17T00:39:27;21.00;99.90
6439;DHT22;3252;52.540;13.290;2023-08-17T00:41:41;21.00;99.90
6439;DHT22;3252;52.540;13.290;2023-08-17T00:43:44;21.00;99.90
6439;DHT22;3252;52.540;13.290;2023-08-17T00:45:49;20.90;99.90
6439;DHT22;3252;52.540;13.290;2023-08-17T00:47:56;20.90;99.90
6439;DHT22;3252;52.540;13.290;2023-08-17T00:50:14;20.90;99.90
6439;DHT22;3252;52.540;13.290;2023-08-17T00:52:19;20.90;99.90
6439;DHT22;3252;52.540;13.290;2023-08-17T00:54:25;20.90;99.90
6439;DHT22;3252;52.540;13.290;2023-08-17T00:56:32;20.80;99.90
6439;DHT22;3252;52.540;13.290;2023-08-17T00:58:36;20.90;99.90
6439;DHT22;3252;52.540;13.290;2023-08-17T01:00:43;20.80;99.90
6439;DHT22;3252;52.540;13.290;2023-08-17T01:02:59;20.80;99.90
6439;DHT22;3252;52.540;13.290;2023-08-17T01:05:10;20.80;99.90
6439;DHT22;3252;52.540;13.290;2023-08-17T01:07:19;20.80;99.90
6439;DHT22;3252;52.540;13.290;2023-08-17T01:09:22;20.80;99.90
6439;DHT22;3252;52.540;13.290;2023-08-17T01:11:29;20.70;99.90
6439;DHT22;3252;52.540;13.290;2023-08-17T01:13:49;20.70;99.90
6439;DHT22;3252;52.540;13.290;2023-08-17T01:16:14;20.70;99.90
6439;DHT22;3252;52.540;13.290;2023-08-17T01:18:24;20.70;99.90
6439;DHT22;3252;52.540;13.290;2023-08-17T01:20:30;20.70;99.90
6439;DHT22;3252;52.540;13.290;2023-08-17T01:22:37;20.60;99.90
6439;DHT22;3252;52.540;13.290;2023-08-17T01:24:57;20.60;99.90
6439;DHT22;3252;52.540;13.290;2023-08-17T01:27:03;20.60;99.90
6439;DHT22;3252;52.540;13.290;2023-08-17T01:29:06;20.60;99.90
6439;DHT22;3252;52.540;13.290;2023-08-17T01:31:20;20.50;99.90
6439;DHT22;3252;52.540;13.290;2023-08-17T01:33:27;20.50;99.90
6439;DHT22;3252;52.540;13.290;2023-08-17T01:35:45;20.50;99.90
6439;DHT22;3252;52.540;13.290;2023-08-17T01:37:55;20.40;99.90
6439;DHT22;3252;52.540;13.290;2023-08-17T01:42:42;20.40;99.90
6439;DHT22;3252;52.540;13.290;2023-08-17T01:44:49;20.40;99.90
6439;DHT22;3252;52.540;13.290;2023-08-17T01:46:58;20.30;99.90
6439;DHT22;3252;52.540;13.290;2023-08-17T01:49:04;20.30;99.90
6439;DHT22;3252;52.540;13.290;2023-08-17T01:51:21;20.30;99.90
6439;DHT22;3252;52.540;13.290;2023-08-17T01:53:24;20.30;99.90
6439;DHT22;3252;52.540;13.290;2023-08-17T01:55:32;20.30;99.90
6439;DHT22;3252;52.540;13.290;2023-08-17T01:57:39;20.30;99.90
6439;DHT22;3252;52.540;13.290;2023-08-17T02:00:00;20.30;99.90
6439;DHT22;3252;52.540;13.290;2023-08-17T02:02:20;20.30;99.90
6439;DHT22;3252;52.540;13.290;2023-08-17T02:04:24;20.30;99.90
6439;DHT22;3252;52.540;13.290;2023-08-17T02:06:45;20.30;99.90
6439;DHT22;3252;52.540;13.290;2023-08-17T02:08:50;20.30;99.90
6439;DHT22;3252;52.540;13.290;2023-08-17T02:11:00;20.20;99.90
6439;DHT22;3252;52.540;13.290;2023-08-17T02:13:11;20.20;99.90
6439;DHT22;3252;52.540;13.290;2023-08-17T02:15:17;20.20;99.90
6439;DHT22;3252;52.540;13.290;2023-08-17T02:17:25;20.20;99.90
6439;DHT22;3252;52.540;13.290;2023-08-17T02:19:31;20.20;99.90
6439;DHT22;3252;52.540;13.290;2023-08-17T02:21:34;20.20;99.90
6439;DHT22;3252;52.540;13.290;2023-08-17T02:23:37;20.10;99.90
6439;DHT22;3252;52.540;13.290;2023-08-17T02:25:40;20.10;99.90
6439;DHT22;3252;52.540;13.290;2023-08-17T02:27:43;20.10;99.90
6439;DHT22;3252;52.540;13.290;2023-08-17T02:29:49;20.10;99.90
6439;DHT22;3252;52.540;13.290;2023-08-17T02:31:56;20.10;99.90
6439;DHT22;3252;52.540;13.290;2023-08-17T02:34:13;20.10;99.90
6439;DHT22;3252;52.540;13.290;2023-08-17T02:36:18;20.10;99.90
6439;DHT22;3252;52.540;13.290;2023-08-17T02:38:27;20.10;99.90
6439;DHT22;3252;52.540;13.290;2023-08-17T02:40:33;20.10;99.90
6439;DHT22;3252;52.540;13.290;2023-08-17T02:42:39;20.00;99.90
6439;DHT22;3252;52.540;13.290;2023-08-17T02:44:44;20.00;99.90
6439;DHT22;3252;52.540;13.290;2023-08-17T02:46:49;20.00;99.90
6439;DHT22;3252;52.540;13.290;2023-08-17T02:48:55;20.00;99.90
6439;DHT22;3252;52.540;13.290;2023-08-17T02:51:02;19.90;99.90
6439;DHT22;3252;52.540;13.290;2023-08-17T02:53:08;19.90;99.90
6439;DHT22;3252;52.540;13.290;2023-08-17T02:55:11;19.90;99.90
6439;DHT22;3252;52.540;13.290;2023-08-17T02:57:15;19.90;99.90
6439;DHT22;3252;52.540;13.290;2023-08-17T02:59:18;19.90;99.90
6439;DHT22;3252;52.540;13.290;2023-08-17T03:01:22;19.90;99.90
6439;DHT22;3252;52.540;13.290;2023-08-17T03:03:25;19.90;99.90
6439;DHT22;3252;52.540;13.290;2023-08-17T03:05:27;19.90;99.90
6439;DHT22;3252;52.540;13.290;2023-08-17T03:07:30;19.90;99.90
6439;DHT22;3252;52.540;13.290;2023-08-17T03:09:33;19.90;99.90
6439;DHT22;3252;52.540;13.290;2023-08-17T03:11:35;19.80;99.90
6439;DHT22;3252;52.540;13.290;2023-08-17T03:13:41;19.80;99.90
6439;DHT22;3252;52.540;13.290;2023-08-17T03:15:44;19.80;99.90
6439;DHT22;3252;52.540;13.290;2023-08-17T03:17:51;19.80;99.90
6439;DHT22;3252;52.540;13.290;2023-08-17T03:19:55;19.80;99.90
6439;DHT22;3252;52.540;13.290;2023-08-17T03:22:04;19.80;99.90
6439;DHT22;3252;52.540;13.290;2023-08-17T03:24:24;19.80;99.90
6439;DHT22;3252;52.540;13.290;2023-08-17T03:26:29;19.80;99.90
6439;DHT22;3252;52.540;13.290;2023-08-17T03:28:31;19.80;99.90
6439;DHT22;3252;52.540;13.290;2023-08-17T03:30:34;19.80;99.90
6439;DHT22;3252;52.540;13.290;2023-08-17T03:32:37;19.80;99.90
6439;DHT22;3252;52.540;13.290;2023-08-17T03:34:42;19.80;99.90
6439;DHT22;3252;52.540;13.290;2023-08-17T03:36:48;19.80;99.90
6439;DHT22;3252;52.540;13.290;2023-08-17T03:39:00;19.80;99.90
6439;DHT22;3252;52.540;13.290;2023-08-17T03:41:03;19.70;99.90
6439;DHT22;3252;52.540;13.290;2023-08-17T03:43:06;19.80;99.90
6439;DHT22;3252;52.540;13.290;2023-08-17T03:45:10;19.70;99.90
6439;DHT22;3252;52.540;13.290;2023-08-17T03:47:16;19.70;99.90
6439;DHT22;3252;52.540;13.290;2023-08-17T03:49:19;19.70;99.90
6439;DHT22;3252;52.540;13.290;2023-08-17T03:51:27;19.70;99.90
6439;DHT22;3252;52.540;13.290;2023-08-17T03:53:32;19.70;99.90
6439;DHT22;3252;52.540;13.290;2023-08-17T03:55:39;19.70;99.90
6439;DHT22;3252;52.540;13.290;2023-08-17T03:57:50;19.70;99.90
6439;DHT22;3252;52.540;13.290;2023-08-17T03:59:59;19.70;99.90
6439;DHT22;3252;52.540;13.290;2023-08-17T04:02:20;19.70;99.90
6439;DHT22;3252;52.540;13.290;2023-08-17T04:04:29;19.70;99.90
6439;DHT22;3252;52.540;13.290;2023-08-17T04:06:41;19.70;99.90
6439;DHT22;3252;52.540;13.290;2023-08-17T04:09:05;19.70;99.90
6439;DHT22;3252;52.540;13.290;2023-08-17T04:11:08;19.70;99.90
6439;DHT22;3252;52.540;13.290;2023-08-17T04:13:11;19.70;99.90
6439;DHT22;3252;52.540;13.290;2023-08-17T04:15:14;19.70;99.90
6439;DHT22;3252;52.540;13.290;2023-08-17T04:17:17;19.60;99.90
6439;DHT22;3252;52.540;13.290;2023-08-17T04:19:22;19.60;99.90
6439;DHT22;3252;52.540;13.290;2023-08-17T04:21:26;19.60;99.90
6439;DHT22;3252;52.540;13.290;2023-08-17T04:23:30;19.50;99.90
6439;DHT22;3252;52.540;13.290;2023-08-17T04:25:33;19.60;99.90
6439;DHT22;3252;52.540;13.290;2023-08-17T04:27:35;19.60;99.90
6439;DHT22;3252;52.540;13.290;2023-08-17T04:29:38;19.60;99.90
6439;DHT22;3252;52.540;13.290;2023-08-17T04:31:39;19.60;99.90
6439;DHT22;3252;52.540;13.290;2023-08-17T04:33:43;19.60;99.90
6439;DHT22;3252;52.540;13.290;2023-08-17T04:35:46;19.60;99.90
6439;DHT22;3252;52.540;13.290;2023-08-17T04:37:52;19.70;99.90
6439;DHT22;3252;52.540;13.290;2023-08-17T04:40:01;19.70;99.90
6439;DHT22;3252;52.540;13.290;2023-08-17T04:42:14;19.70;99.90
6439;DHT22;3252;52.540;13.290;2023-08-17T04:44:23;19.70;99.90
6439;DHT22;3252;52.540;13.290;2023-08-17T04:46:31;19.70;99.90
6439;DHT22;3252;52.540;13.290;2023-08-17T04:48:35;19.70;99.90
6439;DHT22;3252;52.540;13.290;2023-08-17T04:50:38;19.80;99.90
6439;DHT22;3252;52.540;13.290;2023-08-17T04:52:41;19.80;99.90
6439;DHT22;3252;52.540;13.290;2023-08-17T04:54:42;19.80;99.90
6439;DHT22;3252;52.540;13.290;2023-08-17T04:56:46;19.80;99.90
6439;DHT22;3252;52.540;13.290;2023-08-17T04:58:49;19.80;99.90
6439;DHT22;3252;52.540;13.290;2023-08-17T05:00:52;19.80;99.90
6439;DHT22;3252;52.540;13.290;2023-08-17T05:02:55;19.80;99.90
6439;DHT22;3252;52.540;13.290;2023-08-17T05:05:04;19.90;99.90
6439;DHT22;3252;52.540;13.290;2023-08-17T05:07:07;19.90;99.90
6439;DHT22;3252;52.540;13.290;2023-08-17T05:09:11;19.90;99.90
6439;DHT22;3252;52.540;13.290;2023-08-17T05:11:15;19.90;99.90
6439;DHT22;3252;52.540;13.290;2023-08-17T05:13:23;19.90;99.90
6439;DHT22;3252;52.540;13.290;2023-08-17T05:15:26;20.00;99.90
6439;DHT22;3252;52.540;13.290;2023-08-17T05:17:32;20.00;99.90
6439;DHT22;3252;52.540;13.290;2023-08-17T05:19:35;20.00;99.90
6439;DHT22;3252;52.540;13.290;2023-08-17T05:21:39;20.00;99.90
6439;DHT22;3252;52.540;13.290;2023-08-17T05:23:45;19.90;99.90
6439;DHT22;3252;52.540;13.290;2023-08-17T05:25:48;20.00;99.90
6439;DHT22;3252;52.540;13.290;2023-08-17T05:27:53;20.00;99.90
6439;DHT22;3252;52.540;13.290;2023-08-17T05:29:58;20.00;99.90
6439;DHT22;3252;52.540;13.290;2023-08-17T05:32:00;20.00;99.90
6439;DHT22;3252;52.540;13.290;2023-08-17T05:34:04;20.00;99.90
6439;DHT22;3252;52.540;13.290;2023-08-17T05:36:08;20.00;99.90
6439;DHT22;3252;52.540;13.290;2023-08-17T05:38:10;20.00;99.90
6439;DHT22;3252;52.540;13.290;2023-08-17T05:40:16;20.00;99.90
6439;DHT22;3252;52.540;13.290;2023-08-17T05:42:23;20.00;99.90
6439;DHT22;3252;52.540;13.290;2023-08-17T05:44:31;20.00;99.90
6439;DHT22;3252;52.540;13.290;2023-08-17T05:46:35;20.00;99.90
6439;DHT22;3252;52.540;13.290;2023-08-17T05:48:39;20.00;99.90
6439;DHT22;3252;52.540;13.290;2023-08-17T05:50:42;20.00;99.90
6439;DHT22;3252;52.540;13.290;2023-08-17T05:52:49;20.00;99.90
6439;DHT22;3252;52.540;13.290;2023-08-17T05:54:55;20.00;99.90
6439;DHT22;3252;52.540;13.290;2023-08-17T05:56:58;20.00;99.90
6439;DHT22;3252;52.540;13.290;2023-08-17T05:59:01;20.00;99.90
6439;DHT22;3252;52.540;13.290;2023-08-17T06:01:07;20.10;99.90
6439;DHT22;3252;52.540;13.290;2023-08-17T06:03:10;20.00;99.90
6439;DHT22;3252;52.540;13.290;2023-08-17T06:05:13;20.10;99.90
6439;DHT22;3252;52.540;13.290;2023-08-17T06:07:16;20.10;99.90
6439;DHT22;3252;52.540;13.290;2023-08-17T06:09:20;20.10;99.90
6439;DHT22;3252;52.540;13.290;2023-08-17T06:11:23;20.10;99.90
6439;DHT22;3252;52.540;13.290;2023-08-17T06:13:26;20.10;99.90
6439;DHT22;3252;52.540;13.290;2023-08-17T06:15:35;20.10;99.90
6439;DHT22;3252;52.540;13.290;2023-08-17T06:17:38;20.10;99.90
6439;DHT22;3252;52.540;13.290;2023-08-17T06:19:43;20.10;99.90
6439;DHT22;3252;52.540;13.290;2023-08-17T06:21:46;20.10;99.90
6439;DHT22;3252;52.540;13.290;2023-08-17T06:23:49;20.10;99.90
6439;DHT22;3252;52.540;13.290;2023-08-17T06:25:55;20.10;99.90
6439;DHT22;3252;52.540;13.290;2023-08-17T06:27:58;20.20;99.90
6439;DHT22;3252;52.540;13.290;2023-08-17T06:30:04;20.10;99.90
6439;DHT22;3252;52.540;13.290;2023-08-17T06:32:12;20.20;99.90
6439;DHT22;3252;52.540;13.290;2023-08-17T06:34:15;20.20;99.90
6439;DHT22;3252;52.540;13.290;2023-08-17T06:36:20;20.20;99.90
6439;DHT22;3252;52.540;13.290;2023-08-17T06:38:22;20.20;99.90
6439;DHT22;3252;52.540;13.290;2023-08-17T06:40:29;20.20;99.90
6439;DHT22;3252;52.540;13.290;2023-08-17T06:42:33;20.20;99.90
6439;DHT22;3252;52.540;13.290;2023-08-17T06:44:36;20.20;99.90
6439;DHT22;3252;52.540;13.290;2023-08-17T06:46:41;20.20;99.90
6439;DHT22;3252;52.540;13.290;2023-08-17T06:48:46;20.30;99.90
6439;DHT22;3252;52.540;13.290;2023-08-17T06:50:52;20.30;99.90
6439;DHT22;3252;52.540;13.290;2023-08-17T06:53:12;20.30;99.90
6439;DHT22;3252;52.540;13.290;2023-08-17T06:55:20;20.30;99.90
6439;DHT22;3252;52.540;13.290;2023-08-17T06:57:34;20.30;99.90
6439;DHT22;3252;52.540;13.290;2023-08-17T06:59:39;20.30;99.90
6439;DHT22;3252;52.540;13.290;2023-08-17T07:01:44;20.40;99.90
6439;DHT22;3252;52.540;13.290;2023-08-17T07:03:49;20.40;99.90
6439;DHT22;3252;52.540;13.290;2023-08-17T07:05:55;20.40;99.90
6439;DHT22;3252;52.540;13.290;2023-08-17T07:08:00;20.40;99.90
6439;DHT22;3252;52.540;13.290;2023-08-17T07:10:06;20.40;99.90
6439;DHT22;3252;52.540;13.290;2023-08-17T07:12:10;20.40;99.90
6439;DHT22;3252;52.540;13.290;2023-08-17T07:14:13;20.50;99.90
6439;DHT22;3252;52.540;13.290;2023-08-17T07:16:21;20.50;99.90
6439;DHT22;3252;52.540;13.290;2023-08-17T07:18:27;20.50;99.90
6439;DHT22;3252;52.540;13.290;2023-08-17T07:20:33;20.50;99.90
6439;DHT22;3252;52.540;13.290;2023-08-17T07:22:36;20.60;99.90
6439;DHT22;3252;52.540;13.290;2023-08-17T07:24:48;20.60;99.90
6439;DHT22;3252;52.540;13.290;2023-08-17T07:26:59;20.60;99.90
6439;DHT22;3252;52.540;13.290;2023-08-17T07:29:05;20.60;99.90
6439;DHT22;3252;52.540;13.290;2023-08-17T07:31:13;20.60;99.90
6439;DHT22;3252;52.540;13.290;2023-08-17T07:33:15;20.70;99.90
6439;DHT22;3252;52.540;13.290;2023-08-17T07:35:19;20.70;99.90
6439;DHT22;3252;52.540;13.290;2023-08-17T07:37:21;20.70;99.90
6439;DHT22;3252;52.540;13.290;2023-08-17T07:39:26;20.70;99.90
6439;DHT22;3252;52.540;13.290;2023-08-17T07:41:28;20.70;99.90
6439;DHT22;3252;52.540;13.290;2023-08-17T07:43:33;20.70;99.90
6439;DHT22;3252;52.540;13.290;2023-08-17T07:45:36;20.70;99.90
6439;DHT22;3252;52.540;13.290;2023-08-17T07:47:39;20.70;99.90
6439;DHT22;3252;52.540;13.290;2023-08-17T07:49:42;20.70;99.90
6439;DHT22;3252;52.540;13.290;2023-08-17T07:51:44;20.70;99.90
6439;DHT22;3252;52.540;13.290;2023-08-17T07:53:48;20.80;99.90
6439;DHT22;3252;52.540;13.290;2023-08-17T07:55:51;20.80;99.90
6439;DHT22;3252;52.540;13.290;2023-08-17T07:58:00;20.80;99.90
6439;DHT22;3252;52.540;13.290;2023-08-17T08:00:06;20.80;99.90
6439;DHT22;3252;52.540;13.290;2023-08-17T08:02:19;20.80;99.90
6439;DHT22;3252;52.540;13.290;2023-08-17T08:04:22;20.90;99.90
6439;DHT22;3252;52.540;13.290;2023-08-17T08:06:25;21.00;99.90
6439;DHT22;3252;52.540;13.290;2023-08-17T08:08:29;21.00;99.90
6439;DHT22;3252;52.540;13.290;2023-08-17T08:10:31;21.10;99.90
6439;DHT22;3252;52.540;13.290;2023-08-17T08:12:34;21.20;99.90
6439;DHT22;3252;52.540;13.290;2023-08-17T08:14:37;21.20;99.90
6439;DHT22;3252;52.540;13.290;2023-08-17T08:16:45;21.20;99.90
6439;DHT22;3252;52.540;13.290;2023-08-17T08:18:48;21.30;99.90
6439;DHT22;3252;52.540;13.290;2023-08-17T08:20:51;21.30;99.90
6439;DHT22;3252;52.540;13.290;2023-08-17T08:22:54;21.40;99.90
6439;DHT22;3252;52.540;13.290;2023-08-17T08:24:57;21.50;99.90
6439;DHT22;3252;52.540;13.290;2023-08-17T08:27:00;21.50;99.90
6439;DHT22;3252;52.540;13.290;2023-08-17T08:29:09;21.60;99.90
6439;DHT22;3252;52.540;13.290;2023-08-17T08:31:15;21.60;99.90
6439;DHT22;3252;52.540;13.290;2023-08-17T08:33:20;21.70;99.90
6439;DHT22;3252;52.540;13.290;2023-08-17T08:35:22;21.70;99.90
6439;DHT22;3252;52.540;13.290;2023-08-17T08:37:25;21.70;99.90
6439;DHT22;3252;52.540;13.290;2023-08-17T08:39:29;21.70;99.90
6439;DHT22;3252;52.540;13.290;2023-08-17T08:41:35;21.70;99.90
6439;DHT22;3252;52.540;13.290;2023-08-17T08:43:39;21.70;99.90
6439;DHT22;3252;52.540;13.290;2023-08-17T08:45:43;21.70;99.90
6439;DHT22;3252;52.540;13.290;2023-08-17T08:47:48;21.70;99.90
6439;DHT22;3252;52.540;13.290;2023-08-17T08:50:00;21.70;99.90
6439;DHT22;3252;52.540;13.290;2023-08-17T08:52:07;21.70;99.90
6439;DHT22;3252;52.540;13.290;2023-08-17T08:54:15;21.80;99.90
6439;DHT22;3252;52.540;13.290;2023-08-17T08:56:24;21.70;99.90
6439;DHT22;3252;52.540;13.290;2023-08-17T08:58:28;21.70;99.90
6439;DHT22;3252;52.540;13.290;2023-08-17T09:00:32;21.70;99.90
6439;DHT22;3252;52.540;13.290;2023-08-17T09:02:35;21.70;99.90
6439;DHT22;3252;52.540;13.290;2023-08-17T09:04:39;21.70;99.90
6439;DHT22;3252;52.540;13.290;2023-08-17T09:06:44;21.70;99.90
6439;DHT22;3252;52.540;13.290;2023-08-17T09:08:53;21.80;99.90
6439;DHT22;3252;52.540;13.290;2023-08-17T09:10:56;21.80;99.90
6439;DHT22;3252;52.540;13.290;2023-08-17T09:12:59;21.90;99.90
6439;DHT22;3252;52.540;13.290;2023-08-17T09:15:02;21.90;99.90
6439;DHT22;3252;52.540;13.290;2023-08-17T09:17:05;22.00;99.90
6439;DHT22;3252;52.540;13.290;2023-08-17T09:19:10;22.00;99.90
6439;DHT22;3252;52.540;13.290;2023-08-17T09:21:21;22.00;99.90
6439;DHT22;3252;52.540;13.290;2023-08-17T09:23:27;22.10;99.90
6439;DHT22;3252;52.540;13.290;2023-08-17T09:25:33;22.20;99.90
6439;DHT22;3252;52.540;13.290;2023-08-17T09:27:39;22.10;99.90
6439;DHT22;3252;52.540;13.290;2023-08-17T09:29:43;22.20;99.90
6439;DHT22;3252;52.540;13.290;2023-08-17T09:31:47;22.30;99.90
6439;DHT22;3252;52.540;13.290;2023-08-17T09:33:51;22.30;99.90
6439;DHT22;3252;52.540;13.290;2023-08-17T09:36:00;22.40;99.90
6439;DHT22;3252;52.540;13.290;2023-08-17T09:38:03;22.40;99.90
6439;DHT22;3252;52.540;13.290;2023-08-17T09:40:08;22.40;99.90
6439;DHT22;3252;52.540;13.290;2023-08-17T09:42:12;22.50;99.90
6439;DHT22;3252;52.540;13.290;2023-08-17T09:44:15;22.50;99.90
6439;DHT22;3252;52.540;13.290;2023-08-17T09:46:22;22.40;99.90
6439;DHT22;3252;52.540;13.290;2023-08-17T09:48:27;22.40;99.90
6439;DHT22;3252;52.540;13.290;2023-08-17T09:50:31;22.40;99.90
6439;DHT22;3252;52.540;13.290;2023-08-17T09:52:38;22.40;99.90
6439;DHT22;3252;52.540;13.290;2023-08-17T09:54:42;22.40;99.90
6439;DHT22;3252;52.540;13.290;2023-08-17T09:56:49;22.30;99.90
6439;DHT22;3252;52.540;13.290;2023-08-17T09:58:52;22.40;99.90
6439;DHT22;3252;52.540;13.290;2023-08-17T10:00:55;22.40;99.90
6439;DHT22;3252;52.540;13.290;2023-08-17T10:03:09;22.40;99.90
6439;DHT22;3252;52.540;13.290;2023-08-17T10:05:20;22.40;99.90
6439;DHT22;3252;52.540;13.290;2023-08-17T10:07:28;22.40;99.90
6439;DHT22;3252;52.540;13.290;2023-08-17T10:09:41;22.40;99.90
6439;DHT22;3252;52.540;13.290;2023-08-17T10:11:49;22.50;99.90
6439;DHT22;3252;52.540;13.290;2023-08-17T10:13:59;22.50;99.90
6439;DHT22;3252;52.540;13.290;2023-08-17T10:16:12;22.40;99.90
6439;DHT22;3252;52.540;13.290;2023-08-17T10:18:29;22.50;99.90
6439;DHT22;3252;52.540;13.290;2023-08-17T10:20:36;22.40;99.90
6439;DHT22;3252;52.540;13.290;2023-08-17T10:22:47;22.50;99.90
6439;DHT22;3252;52.540;13.290;2023-08-17T10:24:51;22.50;99.90
6439;DHT22;3252;52.540;13.290;2023-08-17T10:27:20;22.50;99.90
6439;DHT22;3252;52.540;13.290;2023-08-17T10:29:29;22.60;99.90
6439;DHT22;3252;52.540;13.290;2023-08-17T10:31:40;22.60;99.90
6439;DHT22;3252;52.540;13.290;2023-08-17T10:33:47;22.70;99.90
6439;DHT22;3252;52.540;13.290;2023-08-17T10:35:51;22.70;99.90
6439;DHT22;3252;52.540;13.290;2023-08-17T10:37:58;22.90;99.90
6439;DHT22;3252;52.540;13.290;2023-08-17T10:40:18;23.90;99.90
6439;DHT22;3252;52.540;13.290;2023-08-17T10:42:33;24.60;99.90
6439;DHT22;3252;52.540;13.290;2023-08-17T10:44:42;24.60;99.90
6439;DHT22;3252;52.540;13.290;2023-08-17T10:46:47;24.30;99.90
6439;DHT22;3252;52.540;13.290;2023-08-17T10:48:53;24.30;99.90
6439;DHT22;3252;52.540;13.290;2023-08-17T10:51:03;24.20;99.90
6439;DHT22;3252;52.540;13.290;2023-08-17T10:53:24;24.20;99.90
6439;DHT22;3252;52.540;13.290;2023-08-17T10:55:37;24.30;99.90
6439;DHT22;3252;52.540;13.290;2023-08-17T10:57:57;24.20;99.90
6439;DHT22;3252;52.540;13.290;2023-08-17T11:02:32;24.10;99.90
6439;DHT22;3252;52.540;13.290;2023-08-17T11:04:34;24.10;99.90
6439;DHT22;3252;52.540;13.290;2023-08-17T11:06:38;24.20;99.90
6439;DHT22;3252;52.540;13.290;2023-08-17T11:08:53;24.30;99.90
6439;DHT22;3252;52.540;13.290;2023-08-17T11:11:04;24.10;99.90
6439;DHT22;3252;52.540;13.290;2023-08-17T11:13:13;24.10;99.90
6439;DHT22;3252;52.540;13.290;2023-08-17T11:15:18;24.00;99.90
6439;DHT22;3252;52.540;13.290;2023-08-17T11:17:29;23.90;99.90
6439;DHT22;3252;52.540;13.290;2023-08-17T11:19:35;24.00;99.90
6439;DHT22;3252;52.540;13.290;2023-08-17T11:22:01;24.10;99.90
6439;DHT22;3252;52.540;13.290;2023-08-17T11:24:04;24.20;99.90
6439;DHT22;3252;52.540;13.290;2023-08-17T11:26:10;24.20;99.90
6439;DHT22;3252;52.540;13.290;2023-08-17T11:28:15;24.10;99.90
6439;DHT22;3252;52.540;13.290;2023-08-17T11:30:21;24.20;99.90
6439;DHT22;3252;52.540;13.290;2023-08-17T11:32:24;24.20;99.90
6439;DHT22;3252;52.540;13.290;2023-08-17T11:34:27;24.20;99.90
6439;DHT22;3252;52.540;13.290;2023-08-17T11:36:33;24.20;99.90
6439;DHT22;3252;52.540;13.290;2023-08-17T11:38:37;24.30;99.90
6439;DHT22;3252;52.540;13.290;2023-08-17T11:40:40;24.30;99.90
6439;DHT22;3252;52.540;13.290;2023-08-17T11:42:44;24.30;99.90
6439;DHT22;3252;52.540;13.290;2023-08-17T11:44:49;24.30;99.90
6439;DHT22;3252;52.540;13.290;2023-08-17T11:46:52;24.30;99.90
6439;DHT22;3252;52.540;13.290;2023-08-17T11:48:59;24.30;99.90
6439;DHT22;3252;52.540;13.290;2023-08-17T11:51:04;24.20;99.90
6439;DHT22;3252;52.540;13.290;2023-08-17T11:53:18;24.20;99.90
6439;DHT22;3252;52.540;13.290;2023-08-17T11:55:21;24.30;99.90
6439;DHT22;3252;52.540;13.290;2023-08-17T11:57:29;24.50;99.90
6439;DHT22;3252;52.540;13.290;2023-08-17T11:59:32;24.50;99.90
6439;DHT22;3252;52.540;13.290;2023-08-17T12:02:06;24.60;99.90
6439;DHT22;3252;52.540;13.290;2023-08-17T12:04:12;24.70;99.90
6439;DHT22;3252;52.540;13.290;2023-08-17T12:06:16;24.70;99.90
6439;DHT22;3252;52.540;13.290;2023-08-17T12:08:19;24.80;99.90
6439;DHT22;3252;52.540;13.290;2023-08-17T12:10:32;24.90;99.90
6439;DHT22;3252;52.540;13.290;2023-08-17T12:12:37;24.80;99.90
6439;DHT22;3252;52.540;13.290;2023-08-17T12:14:42;24.80;99.90
6439;DHT22;3252;52.540;13.290;2023-08-17T12:16:47;24.80;99.90
6439;DHT22;3252;52.540;13.290;2023-08-17T12:18:55;24.70;99.90
6439;DHT22;3252;52.540;13.290;2023-08-17T12:21:04;24.80;99.90
6439;DHT22;3252;52.540;13.290;2023-08-17T12:23:07;24.70;99.90
6439;DHT22;3252;52.540;13.290;2023-08-17T12:25:21;24.80;99.90
6439;DHT22;3252;52.540;13.290;2023-08-17T12:27:25;24.80;99.90
6439;DHT22;3252;52.540;13.290;2023-08-17T12:29:28;24.80;99.90
6439;DHT22;3252;52.540;13.290;2023-08-17T12:31:31;24.70;99.90
6439;DHT22;3252;52.540;13.290;2023-08-17T12:33:36;24.70;99.90
6439;DHT22;3252;52.540;13.290;2023-08-17T12:35:39;24.70;99.90
6439;DHT22;3252;52.540;13.290;2023-08-17T12:37:42;24.80;99.90
6439;DHT22;3252;52.540;13.290;2023-08-17T12:39:44;24.80;99.90
6439;DHT22;3252;52.540;13.290;2023-08-17T12:41:48;24.80;99.90
6439;DHT22;3252;52.540;13.290;2023-08-17T12:43:53;24.70;99.90
6439;DHT22;3252;52.540;13.290;2023-08-17T12:46:00;24.80;99.90
6439;DHT22;3252;52.540;13.290;2023-08-17T12:48:07;24.80;99.90
6439;DHT22;3252;52.540;13.290;2023-08-17T12:50:12;24.80;99.90
6439;DHT22;3252;52.540;13.290;2023-08-17T12:52:18;24.90;99.90
6439;DHT22;3252;52.540;13.290;2023-08-17T12:54:21;25.00;99.90
6439;DHT22;3252;52.540;13.290;2023-08-17T12:56:27;25.00;99.90
6439;DHT22;3252;52.540;13.290;2023-08-17T12:58:37;25.10;99.90
6439;DHT22;3252;52.540;13.290;2023-08-17T13:00:43;25.10;99.90
6439;DHT22;3252;52.540;13.290;2023-08-17T13:02:47;25.10;99.90
6439;DHT22;3252;52.540;13.290;2023-08-17T13:04:55;25.10;99.90
6439;DHT22;3252;52.540;13.290;2023-08-17T13:07:00;25.10;99.90
6439;DHT22;3252;52.540;13.290;2023-08-17T13:09:03;25.10;99.90
6439;DHT22;3252;52.540;13.290;2023-08-17T13:11:33;25.10;99.90
6439;DHT22;3252;52.540;13.290;2023-08-17T13:13:38;25.10;99.90
6439;DHT22;3252;52.540;13.290;2023-08-17T13:15:44;25.00;99.90
6439;DHT22;3252;52.540;13.290;2023-08-17T13:17:46;25.00;99.90
6439;DHT22;3252;52.540;13.290;2023-08-17T13:19:49;25.10;99.90
6439;DHT22;3252;52.540;13.290;2023-08-17T13:21:57;25.10;99.90
6439;DHT22;3252;52.540;13.290;2023-08-17T13:24:06;25.10;99.90
6439;DHT22;3252;52.540;13.290;2023-08-17T13:26:11;25.20;99.90
6439;DHT22;3252;52.540;13.290;2023-08-17T13:28:14;25.30;99.90
6439;DHT22;3252;52.540;13.290;2023-08-17T13:30:20;25.30;99.90
6439;DHT22;3252;52.540;13.290;2023-08-17T13:32:27;25.50;99.90
6439;DHT22;3252;52.540;13.290;2023-08-17T13:34:35;25.40;99.90
6439;DHT22;3252;52.540;13.290;2023-08-17T13:36:38;25.40;99.90